createdAt,value
2022-07-31T00:00:23.029Z,0.00
2022-07-31T00:01:23.014Z,0.00
2022-07-31T00:02:23.020Z,0.00
2022-07-31T00:03:23.079Z,0.00
2022-07-31T00:04:23.024Z,0.00
2022-07-31T00:05:23.026Z,0.00
2022-07-31T00:06:23.037Z,0.00
2022-07-31T00:07:23.023Z,0.00
2022-07-31T00:08:23.031Z,0.00
2022-07-31T00:09:53.300Z,0.00
2022-07-31T00:10:23.053Z,0.00
2022-07-31T00:11:23.040Z,0.00
2022-07-31T00:12:23.053Z,0.00
2022-07-31T00:13:57.320Z,0.00
2022-07-31T00:14:23.047Z,0.00
2022-07-31T00:15:23.045Z,0.00
2022-07-31T00:16:23.061Z,0.00
2022-07-31T00:17:23.033Z,0.00
2022-07-31T00:18:23.041Z,0.00
2022-07-31T00:19:23.041Z,0.00
2022-07-31T00:20:23.039Z,0.00
2022-07-31T00:21:23.055Z,0.00
2022-07-31T00:22:23.058Z,0.00
2022-07-31T00:23:23.044Z,0.00
2022-07-31T00:24:23.055Z,0.00
2022-07-31T00:25:23.047Z,0.00
2022-07-31T00:26:23.056Z,0.00
2022-07-31T00:27:23.051Z,0.00
2022-07-31T00:28:23.070Z,0.00
2022-07-31T00:29:23.067Z,0.00
2022-07-31T00:30:23.058Z,0.00
2022-07-31T00:31:23.063Z,0.00
2022-07-31T00:32:23.104Z,0.00
2022-07-31T00:33:23.075Z,0.00
2022-07-31T00:34:23.061Z,0.00
2022-07-31T00:35:23.086Z,0.00
2022-07-31T00:36:28.040Z,0.00
2022-07-31T00:37:23.072Z,0.00
2022-07-31T00:38:27.142Z,0.00
2022-07-31T00:39:23.094Z,0.00
2022-07-31T00:40:23.110Z,0.00
2022-07-31T00:41:23.090Z,0.00
2022-07-31T00:42:23.106Z,0.00
2022-07-31T00:43:23.070Z,0.00
2022-07-31T00:44:23.072Z,0.00
2022-07-31T00:45:25.923Z,0.00
2022-07-31T00:46:23.202Z,0.00
2022-07-31T00:47:25.492Z,0.00
2022-07-31T00:48:23.076Z,0.00
2022-07-31T00:49:23.152Z,0.00
2022-07-31T00:50:23.089Z,0.00
2022-07-31T00:51:23.088Z,0.00
2022-07-31T00:52:23.116Z,0.00
2022-07-31T00:53:23.091Z,0.00
2022-07-31T00:54:23.283Z,0.00
2022-07-31T00:55:23.114Z,0.00
2022-07-31T00:56:23.079Z,0.00
2022-07-31T00:57:23.104Z,0.00
2022-07-31T00:58:23.105Z,0.00
2022-07-31T00:59:24.585Z,0.00
2022-07-31T01:00:23.093Z,0.00
2022-07-31T01:01:23.187Z,0.00
2022-07-31T01:02:23.100Z,0.00
2022-07-31T01:03:23.111Z,0.00
2022-07-31T01:04:23.099Z,0.00
2022-07-31T01:05:23.093Z,0.00
2022-07-31T01:06:23.104Z,0.00
2022-07-31T01:07:23.120Z,0.00
2022-07-31T01:08:23.099Z,0.00
2022-07-31T01:09:23.129Z,0.00
2022-07-31T01:10:23.102Z,0.00
2022-07-31T01:11:23.132Z,0.00
2022-07-31T01:12:23.104Z,0.00
2022-07-31T01:13:23.120Z,0.00
2022-07-31T01:14:23.108Z,0.00
2022-07-31T01:15:23.114Z,0.00
2022-07-31T01:16:23.127Z,0.00
2022-07-31T01:17:23.109Z,0.00
2022-07-31T01:18:23.110Z,0.00
2022-07-31T01:19:23.106Z,0.00
2022-07-31T01:20:23.116Z,0.00
2022-07-31T01:21:23.115Z,0.00
2022-07-31T01:22:33.578Z,0.00
2022-07-31T01:23:23.112Z,0.00
2022-07-31T01:24:23.120Z,0.00
2022-07-31T01:25:23.118Z,0.00
2022-07-31T01:26:23.125Z,0.00
2022-07-31T01:27:23.119Z,0.00
2022-07-31T01:28:23.117Z,0.00
2022-07-31T01:29:23.123Z,0.00
2022-07-31T01:30:24.781Z,0.00
2022-07-31T01:31:27.497Z,0.00
2022-07-31T01:32:27.586Z,0.00
2022-07-31T01:33:23.128Z,0.00
2022-07-31T01:34:23.121Z,0.00
2022-07-31T01:35:23.122Z,0.00
2022-07-31T01:36:23.129Z,0.00
2022-07-31T01:37:23.152Z,0.00
2022-07-31T01:38:23.141Z,0.00
2022-07-31T01:39:23.125Z,0.00
2022-07-31T01:40:23.153Z,0.00
2022-07-31T01:41:23.126Z,0.00
2022-07-31T01:42:23.132Z,0.00
2022-07-31T01:43:23.131Z,0.00
2022-07-31T01:44:23.139Z,0.00
2022-07-31T01:45:23.131Z,0.00
2022-07-31T01:46:23.141Z,0.00
2022-07-31T01:47:23.135Z,0.00
2022-07-31T01:48:23.143Z,0.00
2022-07-31T01:49:23.229Z,0.00
2022-07-31T01:50:42.496Z,0.00
2022-07-31T01:51:23.144Z,0.00
2022-07-31T01:52:23.133Z,0.00
2022-07-31T01:53:23.145Z,0.00
2022-07-31T01:54:23.140Z,0.00
2022-07-31T01:55:23.866Z,0.00
2022-07-31T01:56:23.139Z,0.00
2022-07-31T01:57:23.140Z,0.00
2022-07-31T01:58:23.142Z,0.00
2022-07-31T01:59:24.543Z,0.00
2022-07-31T02:00:33.763Z,0.00
2022-07-31T02:01:27.006Z,0.00
2022-07-31T02:02:23.161Z,0.00
2022-07-31T02:03:43.809Z,0.00
2022-07-31T02:04:23.155Z,0.00
2022-07-31T02:05:23.160Z,0.00
2022-07-31T02:06:23.150Z,0.00
2022-07-31T02:07:23.151Z,0.00
2022-07-31T02:08:23.181Z,0.00
2022-07-31T02:09:23.157Z,0.00
2022-07-31T02:10:23.193Z,0.00
2022-07-31T02:11:23.174Z,0.00
2022-07-31T02:12:32.210Z,0.00
2022-07-31T02:13:23.151Z,0.00
2022-07-31T02:14:23.156Z,0.00
2022-07-31T02:15:23.152Z,0.00
2022-07-31T02:16:23.171Z,0.00
2022-07-31T02:17:23.158Z,0.00
2022-07-31T02:18:23.156Z,0.00
2022-07-31T02:19:23.264Z,0.00
2022-07-31T02:20:23.169Z,0.00
2022-07-31T02:21:23.163Z,0.00
2022-07-31T02:22:24.013Z,0.00
2022-07-31T02:23:23.160Z,0.00
2022-07-31T02:24:23.167Z,0.00
2022-07-31T02:25:23.172Z,0.00
2022-07-31T02:26:23.169Z,0.00
2022-07-31T02:27:57.395Z,0.00
2022-07-31T02:28:23.167Z,0.00
2022-07-31T02:29:23.162Z,0.00
2022-07-31T02:30:23.161Z,0.00
2022-07-31T02:31:23.208Z,0.00
2022-07-31T02:32:23.168Z,0.00
2022-07-31T02:33:23.163Z,0.00
2022-07-31T02:34:23.164Z,0.00
2022-07-31T02:35:23.220Z,0.00
2022-07-31T02:36:23.171Z,0.00
2022-07-31T02:37:23.166Z,0.00
2022-07-31T02:38:23.890Z,0.00
2022-07-31T02:39:26.451Z,0.00
2022-07-31T02:40:23.231Z,0.00
2022-07-31T02:41:23.167Z,0.00
2022-07-31T02:42:23.164Z,0.00
2022-07-31T02:43:23.187Z,0.00
2022-07-31T02:44:27.331Z,0.00
2022-07-31T02:45:23.199Z,0.00
2022-07-31T02:46:23.190Z,0.00
2022-07-31T02:47:23.178Z,0.00
2022-07-31T02:48:23.172Z,0.00
2022-07-31T02:49:23.211Z,0.00
2022-07-31T02:50:23.180Z,0.00
2022-07-31T02:51:23.173Z,4.00
2022-07-31T02:52:23.177Z,4.00
2022-07-31T02:53:23.196Z,4.00
2022-07-31T02:54:23.174Z,0.00
2022-07-31T02:55:23.180Z,4.00
2022-07-31T02:56:23.180Z,4.00
2022-07-31T02:57:23.173Z,4.00
2022-07-31T02:58:23.178Z,4.00
2022-07-31T02:59:23.182Z,4.00
2022-07-31T03:00:23.297Z,4.00
2022-07-31T03:01:23.286Z,8.00
2022-07-31T03:02:23.188Z,8.00
2022-07-31T03:03:23.210Z,12.00
2022-07-31T03:04:23.177Z,12.00
2022-07-31T03:05:23.187Z,12.00
2022-07-31T03:06:23.178Z,12.00
2022-07-31T03:07:23.187Z,16.00
2022-07-31T03:08:23.192Z,20.00
2022-07-31T03:09:23.179Z,20.00
2022-07-31T03:10:23.182Z,24.00
2022-07-31T03:11:23.181Z,28.00
2022-07-31T03:12:23.177Z,28.00
2022-07-31T03:13:23.181Z,32.00
2022-07-31T03:14:23.186Z,36.00
2022-07-31T03:15:23.188Z,44.00
2022-07-31T03:16:23.185Z,44.00
2022-07-31T03:17:23.186Z,52.00
2022-07-31T03:18:23.189Z,56.00
2022-07-31T03:19:23.189Z,60.00
2022-07-31T03:20:23.190Z,68.00
2022-07-31T03:21:23.208Z,72.00
2022-07-31T03:22:23.184Z,80.00
2022-07-31T03:23:23.197Z,84.00
2022-07-31T03:24:23.199Z,92.00
2022-07-31T03:25:23.193Z,100.00
2022-07-31T03:26:23.184Z,108.00
2022-07-31T03:27:23.194Z,116.00
2022-07-31T03:28:23.199Z,124.00
2022-07-31T03:29:39.131Z,136.00
2022-07-31T03:30:23.192Z,144.00
2022-07-31T03:31:23.186Z,156.00
2022-07-31T03:32:23.199Z,168.00
2022-07-31T03:33:23.195Z,176.00
2022-07-31T03:34:23.190Z,188.00
2022-07-31T03:35:23.190Z,200.00
2022-07-31T03:36:23.197Z,216.00
2022-07-31T03:37:23.207Z,232.00
2022-07-31T03:38:38.728Z,248.00
2022-07-31T03:39:23.194Z,264.00
2022-07-31T03:40:23.194Z,288.00
2022-07-31T03:41:23.189Z,304.00
2022-07-31T03:42:23.188Z,332.00
2022-07-31T03:43:23.205Z,360.00
2022-07-31T03:44:23.195Z,384.00
2022-07-31T03:45:23.206Z,408.00
2022-07-31T03:46:23.198Z,428.00
2022-07-31T03:47:23.197Z,448.00
2022-07-31T03:48:23.202Z,468.00
2022-07-31T03:49:23.334Z,488.00
2022-07-31T03:50:23.201Z,512.00
2022-07-31T03:51:23.193Z,528.00
2022-07-31T03:52:23.195Z,548.00
2022-07-31T03:53:23.196Z,568.00
2022-07-31T03:54:23.209Z,596.00
2022-07-31T03:55:23.219Z,620.00
2022-07-31T03:56:23.195Z,644.00
2022-07-31T03:57:25.353Z,672.00
2022-07-31T03:58:23.198Z,700.00
2022-07-31T03:59:23.206Z,724.00
2022-07-31T04:00:23.205Z,748.00
2022-07-31T04:01:23.237Z,772.00
2022-07-31T04:02:23.269Z,796.00
2022-07-31T04:03:23.198Z,820.00
2022-07-31T04:04:23.219Z,844.00
2022-07-31T04:05:23.205Z,876.00
2022-07-31T04:06:23.206Z,900.00
2022-07-31T04:07:23.201Z,928.00
2022-07-31T04:08:23.213Z,956.00
2022-07-31T04:09:23.201Z,988.00
2022-07-31T04:10:23.204Z,1016.00
2022-07-31T04:11:23.201Z,1044.00
2022-07-31T04:12:23.202Z,1072.00
2022-07-31T04:13:23.206Z,1100.00
2022-07-31T04:14:23.202Z,1124.00
2022-07-31T04:15:23.221Z,1148.00
2022-07-31T04:16:23.205Z,1176.00
2022-07-31T04:17:23.205Z,1204.00
2022-07-31T04:18:23.236Z,1232.00
2022-07-31T04:19:23.212Z,1260.00
2022-07-31T04:20:23.205Z,1292.00
2022-07-31T04:21:23.203Z,1320.00
2022-07-31T04:22:23.208Z,1356.00
2022-07-31T04:23:23.216Z,1384.00
2022-07-31T04:24:23.218Z,1412.00
2022-07-31T04:25:23.214Z,1440.00
2022-07-31T04:26:26.117Z,1468.00
2022-07-31T04:27:23.216Z,1496.00
2022-07-31T04:28:23.205Z,1524.00
2022-07-31T04:29:23.209Z,1552.00
2022-07-31T04:30:23.208Z,1584.00
2022-07-31T04:31:23.213Z,1612.00
2022-07-31T04:32:23.215Z,1644.00
2022-07-31T04:33:23.214Z,1680.00
2022-07-31T04:34:23.223Z,1716.00
2022-07-31T04:35:23.243Z,1744.00
2022-07-31T04:36:30.053Z,1780.00
2022-07-31T04:37:23.217Z,1812.00
2022-07-31T04:38:23.219Z,1844.00
2022-07-31T04:39:23.215Z,1884.00
2022-07-31T04:40:23.210Z,1920.00
2022-07-31T04:41:23.225Z,1956.00
2022-07-31T04:42:23.219Z,1992.00
2022-07-31T04:43:23.214Z,2020.00
2022-07-31T04:44:23.224Z,2052.00
2022-07-31T04:45:23.222Z,2084.00
2022-07-31T04:46:23.223Z,2120.00
2022-07-31T04:47:23.221Z,2156.00
2022-07-31T04:48:23.217Z,2192.00
2022-07-31T04:49:23.302Z,2232.00
2022-07-31T04:50:23.229Z,2264.00
2022-07-31T04:51:23.229Z,2296.00
2022-07-31T04:52:23.223Z,2328.00
2022-07-31T04:53:23.218Z,2356.00
2022-07-31T04:54:23.241Z,2388.00
2022-07-31T04:55:23.230Z,2416.00
2022-07-31T04:56:23.243Z,2448.00
2022-07-31T04:57:23.221Z,2480.00
2022-07-31T04:58:23.217Z,2516.00
2022-07-31T04:59:23.224Z,2552.00
2022-07-31T05:00:23.223Z,2592.00
2022-07-31T05:01:23.256Z,2632.00
2022-07-31T05:02:23.232Z,2676.00
2022-07-31T05:03:23.238Z,2720.00
2022-07-31T05:04:23.236Z,2756.00
2022-07-31T05:05:23.235Z,2804.00
2022-07-31T05:06:23.230Z,2852.00
2022-07-31T05:07:23.277Z,2896.00
2022-07-31T05:08:23.235Z,2944.00
2022-07-31T05:09:23.665Z,2988.00
2022-07-31T05:10:23.242Z,3044.00
2022-07-31T05:11:23.229Z,3096.00
2022-07-31T05:12:23.231Z,3148.00
2022-07-31T05:13:23.226Z,3200.00
2022-07-31T05:14:23.236Z,3248.00
2022-07-31T05:15:23.233Z,3288.00
2022-07-31T05:16:23.247Z,3320.00
2022-07-31T05:17:30.445Z,3348.00
2022-07-31T05:19:16.386Z,3420.00
2022-07-31T05:20:16.354Z,3452.00
2022-07-31T05:22:20.400Z,3524.00
2022-07-31T05:23:20.366Z,3560.00
2022-07-31T05:25:13.471Z,3652.00
2022-07-31T05:26:13.469Z,3716.00
2022-07-31T05:28:09.585Z,3820.00
2022-07-31T05:29:06.435Z,3872.00
2022-07-31T05:31:10.469Z,3984.00
2022-07-31T05:32:10.663Z,4048.00
2022-07-31T05:34:14.566Z,4204.00
2022-07-31T05:35:14.482Z,4288.00
2022-07-31T05:37:18.521Z,4492.00
2022-07-31T05:38:18.503Z,4596.00
2022-07-31T05:40:22.992Z,4832.00
2022-07-31T05:41:22.994Z,7956.00
2022-07-31T05:42:22.994Z,34688.00
2022-07-31T05:43:23.011Z,67296.00
2022-07-31T05:44:22.999Z,71040.00
2022-07-31T05:45:23.011Z,72768.00
2022-07-31T05:46:22.996Z,71488.00
2022-07-31T05:47:23.001Z,68800.00
2022-07-31T05:48:23.008Z,65888.00
2022-07-31T05:49:23.077Z,64096.00
2022-07-31T05:50:23.010Z,64032.00
2022-07-31T05:51:23.030Z,65888.00
2022-07-31T05:52:23.022Z,65440.00
2022-07-31T05:53:23.036Z,65856.00
2022-07-31T05:54:23.034Z,64608.00
2022-07-31T05:55:23.052Z,62912.00
2022-07-31T05:56:23.048Z,62784.00
2022-07-31T05:57:33.077Z,64096.00
2022-07-31T05:58:23.066Z,65504.00
2022-07-31T05:59:23.134Z,68672.00
2022-07-31T06:00:23.144Z,71680.00
2022-07-31T06:01:23.148Z,75392.00
2022-07-31T06:02:23.099Z,75072.00
2022-07-31T06:03:23.108Z,69440.00
2022-07-31T06:04:23.120Z,67904.00
2022-07-31T06:05:23.133Z,71456.00
2022-07-31T06:06:23.147Z,72928.00
2022-07-31T06:07:23.371Z,72896.00
2022-07-31T06:08:23.162Z,72384.00
2022-07-31T06:09:23.234Z,72352.00
2022-07-31T06:10:23.201Z,75744.00
2022-07-31T06:11:23.221Z,75808.00
2022-07-31T06:12:23.395Z,77312.00
2022-07-31T06:13:23.240Z,80128.00
2022-07-31T06:14:23.236Z,81312.00
2022-07-31T06:15:23.242Z,79840.00
2022-07-31T06:16:23.258Z,79648.00
2022-07-31T06:17:23.482Z,80576.00
2022-07-31T06:18:23.282Z,79040.00
2022-07-31T06:19:24.356Z,79008.00
2022-07-31T06:20:23.307Z,80288.00
2022-07-31T06:21:26.491Z,80256.00
2022-07-31T06:22:23.526Z,79744.00
2022-07-31T06:23:32.130Z,79200.00
2022-07-31T06:24:23.354Z,77728.00
2022-07-31T06:25:23.391Z,78528.00
2022-07-31T06:26:24.300Z,80832.00
2022-07-31T06:27:33.631Z,80256.00
2022-07-31T06:28:23.651Z,78208.00
2022-07-31T06:29:40.969Z,78592.00
2022-07-31T06:30:23.435Z,77856.00
2022-07-31T06:31:23.479Z,77024.00
2022-07-31T06:32:23.485Z,77760.00
2022-07-31T06:33:37.536Z,71456.00
2022-07-31T06:34:23.490Z,64928.00
2022-07-31T06:35:23.510Z,66816.00
2022-07-31T06:36:23.526Z,66560.00
2022-07-31T06:37:23.537Z,58336.00
2022-07-31T06:38:23.563Z,53088.00
2022-07-31T06:39:23.562Z,57728.00
2022-07-31T06:40:23.568Z,61120.00
2022-07-31T06:41:23.596Z,55264.00
2022-07-31T06:42:23.605Z,52064.00
2022-07-31T06:43:23.633Z,59648.00
2022-07-31T06:44:23.641Z,63488.00
2022-07-31T06:45:48.526Z,62848.00
2022-07-31T06:46:23.670Z,67392.00
2022-07-31T06:47:23.687Z,71296.00
2022-07-31T06:48:23.692Z,75072.00
2022-07-31T06:49:23.764Z,79584.00
2022-07-31T06:50:23.728Z,82112.00
2022-07-31T06:51:32.203Z,82976.00
2022-07-31T06:52:23.742Z,81568.00
2022-07-31T06:53:23.757Z,78720.00
2022-07-31T06:54:26.480Z,78368.00
2022-07-31T06:55:23.794Z,81120.00
2022-07-31T06:56:23.955Z,80480.00
2022-07-31T06:57:23.847Z,80992.00
2022-07-31T06:58:23.831Z,80384.00
2022-07-31T06:59:39.437Z,80064.00
2022-07-31T07:00:23.864Z,80352.00
2022-07-31T07:01:23.970Z,80160.00
2022-07-31T07:02:23.894Z,80064.00
2022-07-31T07:03:23.929Z,80544.00
2022-07-31T07:04:23.933Z,79616.00
2022-07-31T07:05:23.951Z,78432.00
2022-07-31T07:06:23.969Z,79296.00
2022-07-31T07:07:24.011Z,79040.00
2022-07-31T07:08:23.997Z,76640.00
2022-07-31T07:09:24.043Z,71264.00
2022-07-31T07:10:24.057Z,65376.00
2022-07-31T07:11:24.036Z,62880.00
2022-07-31T07:12:24.060Z,68000.00
2022-07-31T07:13:24.068Z,71808.00
2022-07-31T07:14:24.082Z,71392.00
2022-07-31T07:15:24.109Z,67360.00
2022-07-31T07:16:24.120Z,65184.00
2022-07-31T07:17:28.830Z,66880.00
2022-07-31T07:18:24.161Z,71584.00
2022-07-31T07:19:24.167Z,77216.00
2022-07-31T07:20:24.196Z,79872.00
2022-07-31T07:21:24.195Z,78080.00
2022-07-31T07:22:31.724Z,75008.00
2022-07-31T07:23:24.245Z,76448.00
2022-07-31T07:24:24.249Z,81344.00
2022-07-31T07:25:24.260Z,82176.00
2022-07-31T07:26:24.301Z,80352.00
2022-07-31T07:27:24.299Z,80832.00
2022-07-31T07:28:30.517Z,82304.00
2022-07-31T07:29:24.328Z,80832.00
2022-07-31T07:30:24.367Z,80576.00
2022-07-31T07:31:24.370Z,82048.00
2022-07-31T07:32:24.380Z,81856.00
2022-07-31T07:33:41.813Z,79520.00
2022-07-31T07:34:24.443Z,79904.00
2022-07-31T07:35:24.435Z,78976.00
2022-07-31T07:36:24.931Z,79680.00
2022-07-31T07:37:24.478Z,81184.00
2022-07-31T07:38:24.478Z,80064.00
2022-07-31T07:39:24.496Z,81824.00
2022-07-31T07:40:24.525Z,82560.00
2022-07-31T07:41:24.547Z,80512.00
2022-07-31T07:42:24.547Z,79680.00
2022-07-31T07:43:24.590Z,82976.00
2022-07-31T07:44:24.585Z,84160.00
2022-07-31T07:45:24.603Z,85600.00
2022-07-31T07:46:24.637Z,85856.00
2022-07-31T07:47:24.650Z,81248.00
2022-07-31T07:48:24.652Z,79456.00
2022-07-31T07:49:24.800Z,80352.00
2022-07-31T07:50:27.149Z,79648.00
2022-07-31T07:51:24.702Z,79040.00
2022-07-31T07:52:28.735Z,78496.00
2022-07-31T07:53:24.781Z,82720.00
2022-07-31T07:54:24.770Z,87488.00
2022-07-31T07:55:24.774Z,87104.00
2022-07-31T07:56:24.860Z,79808.00
2022-07-31T07:57:24.804Z,79488.00
2022-07-31T07:58:24.828Z,82688.00
2022-07-31T07:59:24.851Z,79168.00
2022-07-31T08:00:24.878Z,76128.00
2022-07-31T08:01:24.949Z,78432.00
2022-07-31T08:02:24.898Z,74848.00
2022-07-31T08:03:50.700Z,79072.00
2022-07-31T08:04:24.970Z,78464.00
2022-07-31T08:05:24.952Z,73632.00
2022-07-31T08:06:24.983Z,70464.00
2022-07-31T08:07:24.982Z,64032.00
2022-07-31T08:08:25.034Z,49920.00
2022-07-31T08:09:25.052Z,21856.00
2022-07-31T08:10:25.050Z,19136.00
2022-07-31T08:11:25.066Z,17984.00
2022-07-31T08:12:25.097Z,15452.00
2022-07-31T08:13:25.088Z,15500.00
2022-07-31T08:14:25.128Z,15712.00
2022-07-31T08:15:25.136Z,15192.00
2022-07-31T08:16:25.156Z,14788.00
2022-07-31T08:17:25.206Z,14352.00
2022-07-31T08:18:27.104Z,14036.00
2022-07-31T08:19:25.229Z,13640.00
2022-07-31T08:20:25.199Z,13252.00
2022-07-31T08:21:25.228Z,12880.00
2022-07-31T08:22:25.244Z,12508.00
2022-07-31T08:23:25.263Z,12132.00
2022-07-31T08:24:25.267Z,11776.00
2022-07-31T08:25:25.285Z,11468.00
2022-07-31T08:26:27.303Z,11120.00
2022-07-31T08:27:39.368Z,10824.00
2022-07-31T08:28:25.331Z,10548.00
2022-07-31T08:29:27.440Z,10300.00
2022-07-31T08:30:25.351Z,10068.00
2022-07-31T08:31:25.355Z,9860.00
2022-07-31T08:32:25.370Z,9668.00
2022-07-31T08:33:25.386Z,9508.00
2022-07-31T08:34:30.930Z,9364.00
2022-07-31T08:35:25.426Z,9204.00
2022-07-31T08:36:25.415Z,9072.00
2022-07-31T08:37:51.742Z,8960.00
2022-07-31T08:38:25.482Z,8836.00
2022-07-31T08:39:25.463Z,8692.00
2022-07-31T08:40:25.468Z,8600.00
2022-07-31T08:41:25.497Z,8456.00
2022-07-31T08:42:25.494Z,8340.00
2022-07-31T08:44:00.544Z,8220.00
2022-07-31T08:44:26.461Z,8100.00
2022-07-31T08:45:25.518Z,7988.00
2022-07-31T08:46:25.543Z,7896.00
2022-07-31T08:47:25.552Z,7812.00
2022-07-31T08:48:25.557Z,7704.00
2022-07-31T08:49:25.637Z,7616.00
2022-07-31T08:50:25.566Z,7516.00
2022-07-31T08:51:25.604Z,7408.00
2022-07-31T08:52:25.586Z,7308.00
2022-07-31T08:53:25.608Z,7208.00
2022-07-31T08:54:25.608Z,7124.00
2022-07-31T08:55:57.102Z,7052.00
2022-07-31T08:56:25.621Z,6968.00
2022-07-31T08:57:25.640Z,6892.00
2022-07-31T08:58:25.692Z,6816.00
2022-07-31T08:59:25.654Z,6744.00
2022-07-31T09:00:25.677Z,6676.00
2022-07-31T09:01:25.783Z,6628.00
2022-07-31T09:02:25.681Z,6584.00
2022-07-31T09:03:25.703Z,6544.00
2022-07-31T09:04:25.710Z,6484.00
2022-07-31T09:05:25.714Z,6428.00
2022-07-31T09:06:25.719Z,6356.00
2022-07-31T09:07:25.727Z,6308.00
2022-07-31T09:08:25.733Z,6232.00
2022-07-31T09:09:25.751Z,6168.00
2022-07-31T09:10:25.752Z,6144.00
2022-07-31T09:11:25.766Z,6096.00
2022-07-31T09:12:33.590Z,6024.00
2022-07-31T09:13:25.789Z,5980.00
2022-07-31T09:14:25.801Z,5920.00
2022-07-31T09:15:25.807Z,5868.00
2022-07-31T09:16:30.693Z,5832.00
2022-07-31T09:17:25.845Z,5796.00
2022-07-31T09:18:25.817Z,5736.00
2022-07-31T09:19:52.261Z,5684.00
2022-07-31T09:20:25.848Z,5644.00
2022-07-31T09:21:25.848Z,5596.00
2022-07-31T09:22:25.875Z,5536.00
2022-07-31T09:23:25.873Z,5532.00
2022-07-31T09:24:25.881Z,5536.00
2022-07-31T09:25:25.888Z,5516.00
2022-07-31T09:26:25.902Z,5488.00
2022-07-31T09:27:25.911Z,5464.00
2022-07-31T09:28:25.921Z,5424.00
2022-07-31T09:29:25.922Z,5408.00
2022-07-31T09:30:25.962Z,5392.00
2022-07-31T09:31:25.934Z,5348.00
2022-07-31T09:32:25.944Z,5320.00
2022-07-31T09:33:25.948Z,5300.00
2022-07-31T09:34:25.953Z,5276.00
2022-07-31T09:35:25.980Z,5256.00
2022-07-31T09:36:25.968Z,5236.00
2022-07-31T09:37:25.979Z,5244.00
2022-07-31T09:38:25.987Z,5260.00
2022-07-31T09:39:27.078Z,5244.00
2022-07-31T09:40:25.994Z,5244.00
2022-07-31T09:42:00.219Z,5188.00
2022-07-31T09:42:26.011Z,5228.00
2022-07-31T09:43:26.035Z,5268.00
2022-07-31T09:44:26.392Z,5292.00
2022-07-31T09:45:26.032Z,5288.00
2022-07-31T09:46:26.044Z,5292.00
2022-07-31T09:47:26.066Z,5296.00
2022-07-31T09:48:28.479Z,5336.00
2022-07-31T09:49:26.096Z,5412.00
2022-07-31T09:50:26.075Z,5444.00
2022-07-31T09:51:26.088Z,5436.00
2022-07-31T09:52:26.101Z,4976.00
2022-07-31T09:53:26.102Z,5064.00
2022-07-31T09:54:26.111Z,4452.00
2022-07-31T09:55:26.122Z,4380.00
2022-07-31T09:56:26.127Z,4508.00
2022-07-31T09:57:26.137Z,4572.00
2022-07-31T09:58:26.147Z,4888.00
2022-07-31T09:59:26.165Z,4424.00
2022-07-31T10:00:26.236Z,4608.00
2022-07-31T10:01:26.267Z,5168.00
2022-07-31T10:02:26.172Z,5076.00
2022-07-31T10:03:26.165Z,5136.00
2022-07-31T10:04:26.174Z,5124.00
2022-07-31T10:05:26.193Z,5096.00
2022-07-31T10:06:26.198Z,5180.00
2022-07-31T10:07:32.834Z,5184.00
2022-07-31T10:08:26.218Z,5272.00
2022-07-31T10:09:26.210Z,5336.00
2022-07-31T10:10:26.233Z,5304.00
2022-07-31T10:11:26.229Z,5320.00
2022-07-31T10:12:26.246Z,5336.00
2022-07-31T10:13:26.243Z,5312.00
2022-07-31T10:14:26.249Z,5336.00
2022-07-31T10:15:26.255Z,5012.00
2022-07-31T10:16:26.271Z,4360.00
2022-07-31T10:17:26.284Z,4376.00
2022-07-31T10:18:35.719Z,5060.00
2022-07-31T10:19:26.300Z,5056.00
2022-07-31T10:20:26.295Z,5096.00
2022-07-31T10:21:26.302Z,5048.00
2022-07-31T10:22:26.315Z,4988.00
2022-07-31T10:23:26.312Z,4928.00
2022-07-31T10:24:28.310Z,4876.00
2022-07-31T10:25:26.326Z,4852.00
2022-07-31T10:26:44.501Z,4840.00
2022-07-31T10:27:26.354Z,4820.00
2022-07-31T10:28:26.353Z,4792.00
2022-07-31T10:29:26.358Z,4720.00
2022-07-31T10:30:28.320Z,4724.00
2022-07-31T10:31:26.365Z,4944.00
2022-07-31T10:32:26.384Z,5116.00
2022-07-31T10:33:43.645Z,5184.00
2022-07-31T10:34:26.393Z,5224.00
2022-07-31T10:35:26.399Z,5216.00
2022-07-31T10:36:26.404Z,5196.00
2022-07-31T10:37:26.410Z,5020.00
2022-07-31T10:38:26.415Z,4344.00
2022-07-31T10:39:26.421Z,4804.00
2022-07-31T10:40:26.442Z,4072.00
2022-07-31T10:41:26.459Z,4052.00
2022-07-31T10:42:26.447Z,4020.00
2022-07-31T10:43:26.451Z,4008.00
2022-07-31T10:44:26.469Z,4772.00
2022-07-31T10:45:26.466Z,4908.00
2022-07-31T10:46:26.483Z,4932.00
2022-07-31T10:47:26.474Z,4608.00
2022-07-31T10:48:26.499Z,4848.00
2022-07-31T10:49:26.577Z,4616.00
2022-07-31T10:50:26.510Z,3716.00
2022-07-31T10:51:26.516Z,3572.00
2022-07-31T10:52:26.521Z,3472.00
2022-07-31T10:53:51.446Z,3380.00
2022-07-31T10:54:26.532Z,3388.00
2022-07-31T10:55:26.537Z,3448.00
2022-07-31T10:56:26.530Z,3476.00
2022-07-31T10:57:26.550Z,3556.00
2022-07-31T10:58:26.550Z,3712.00
2022-07-31T10:59:26.555Z,4492.00
2022-07-31T11:00:29.486Z,4544.00
2022-07-31T11:01:26.626Z,4488.00
2022-07-31T11:02:26.607Z,4632.00
2022-07-31T11:03:26.586Z,4708.00
2022-07-31T11:04:26.614Z,4768.00
2022-07-31T11:05:26.623Z,4688.00
2022-07-31T11:06:26.602Z,4548.00
2022-07-31T11:07:26.621Z,4496.00
2022-07-31T11:08:26.637Z,4588.00
2022-07-31T11:09:26.614Z,4784.00
2022-07-31T11:10:26.634Z,4952.00
2022-07-31T11:11:26.641Z,5040.00
2022-07-31T11:12:26.640Z,4344.00
2022-07-31T11:13:33.728Z,4856.00
2022-07-31T11:14:26.661Z,4496.00
2022-07-31T11:15:26.655Z,4664.00
2022-07-31T11:16:26.673Z,4424.00
2022-07-31T11:18:20.914Z,4336.00
2022-07-31T11:18:34.673Z,4180.00
2022-07-31T11:20:30.701Z,3776.00
2022-07-31T11:21:38.528Z,3808.00
2022-07-31T11:23:34.705Z,3972.00
2022-07-31T11:24:34.705Z,4096.00
2022-07-31T11:26:41.658Z,4384.00
2022-07-31T11:27:38.715Z,4428.00
2022-07-31T11:30:02.013Z,4188.00
2022-07-31T11:30:31.645Z,4616.00
2022-07-31T11:32:35.664Z,5380.00
2022-07-31T11:33:41.678Z,5216.00
2022-07-31T11:35:39.693Z,5620.00
2022-07-31T11:36:39.680Z,5688.00
2022-07-31T11:38:44.691Z,5744.00
2022-07-31T11:39:51.539Z,5512.00
2022-07-31T11:41:47.750Z,5352.00
2022-07-31T11:42:55.869Z,5276.00
2022-07-31T11:43:47.717Z,5080.00
2022-07-31T11:44:47.722Z,5116.00
2022-07-31T11:45:48.159Z,4636.00
2022-07-31T11:46:47.738Z,4588.00
2022-07-31T11:48:11.350Z,4616.00
2022-07-31T11:48:47.788Z,5380.00
2022-07-31T11:49:48.930Z,5160.00
2022-07-31T11:50:47.767Z,5032.00
2022-07-31T11:51:47.771Z,4672.00
2022-07-31T11:52:47.768Z,4608.00
2022-07-31T11:53:56.687Z,4580.00
2022-07-31T11:54:47.791Z,5312.00
2022-07-31T11:55:47.806Z,4824.00
2022-07-31T11:56:47.797Z,5156.00
2022-07-31T11:57:51.352Z,4768.00
2022-07-31T11:58:47.812Z,4572.00
2022-07-31T11:59:49.601Z,5156.00
2022-07-31T12:00:47.834Z,5096.00
2022-07-31T12:01:47.833Z,5424.00
2022-07-31T12:02:47.957Z,5252.00
2022-07-31T12:03:47.851Z,5452.00
2022-07-31T12:04:47.853Z,5376.00
2022-07-31T12:05:47.865Z,5276.00
2022-07-31T12:06:47.869Z,5456.00
2022-07-31T12:07:47.876Z,5412.00
2022-07-31T12:08:47.888Z,5364.00
2022-07-31T12:10:00.770Z,5304.00
2022-07-31T12:10:47.895Z,4644.00
2022-07-31T12:11:47.911Z,5356.00
2022-07-31T12:12:47.907Z,5320.00
2022-07-31T12:13:47.920Z,5248.00
2022-07-31T12:14:47.913Z,5216.00
2022-07-31T12:15:47.920Z,5184.00
2022-07-31T12:16:47.925Z,4988.00
2022-07-31T12:17:47.966Z,5016.00
2022-07-31T12:18:47.952Z,4932.00
2022-07-31T12:19:47.949Z,4804.00
2022-07-31T12:20:47.957Z,4188.00
2022-07-31T12:21:47.959Z,4316.00
2022-07-31T12:22:47.971Z,3476.00
2022-07-31T12:23:47.978Z,4144.00
2022-07-31T12:24:47.985Z,3380.00
2022-07-31T12:25:47.995Z,3368.00
2022-07-31T12:26:48.008Z,3388.00
2022-07-31T12:27:48.020Z,3256.00
2022-07-31T12:28:48.025Z,3044.00
2022-07-31T12:29:48.024Z,2872.00
2022-07-31T12:30:48.030Z,2680.00
2022-07-31T12:31:48.025Z,2496.00
2022-07-31T12:32:48.042Z,2360.00
2022-07-31T12:33:48.052Z,2288.00
2022-07-31T12:34:48.055Z,2256.00
2022-07-31T12:35:55.802Z,2252.00
2022-07-31T12:36:48.077Z,2240.00